sensor_id;sensor_type;location;lat;lon;timestamp;temperature;humidity
584;HTU21D;27024;54.068;12.116;2023-04-03T00:01:20;0.18;105.69
584;HTU21D;27024;54.068;12.116;2023-04-03T00:03:46;0.06;106.63
584;HTU21D;27024;54.068;12.116;2023-04-03T00:06:14;0.02;106.94
584;HTU21D;27024;54.068;12.116;2023-04-03T00:08:41;-0.02;106.82
584;HTU21D;27024;54.068;12.116;2023-04-03T00:11:08;-0.03;107.02
584;HTU21D;27024;54.068;12.116;2023-04-03T00:13:35;-0.03;106.76
584;HTU21D;27024;54.068;12.116;2023-04-03T00:16:02;-0.03;106.92
584;HTU21D;27024;54.068;12.116;2023-04-03T00:18:30;-0.08;107.27
584;HTU21D;27024;54.068;12.116;2023-04-03T00:20:57;-0.06;107.08
584;HTU21D;27024;54.068;12.116;2023-04-03T00:23:24;-0.02;106.69
584;HTU21D;27024;54.068;12.116;2023-04-03T00:25:51;-0.10;107.02
584;HTU21D;27024;54.068;12.116;2023-04-03T00:28:19;-0.09;107.11
584;HTU21D;27024;54.068;12.116;2023-04-03T00:30:46;-0.09;107.26
584;HTU21D;27024;54.068;12.116;2023-04-03T00:33:13;-0.07;107.59
584;HTU21D;27024;54.068;12.116;2023-04-03T00:35:40;-0.19;107.87
584;HTU21D;27024;54.068;12.116;2023-04-03T00:38:08;-0.06;107.10
584;HTU21D;27024;54.068;12.116;2023-04-03T00:40:37;0.03;106.70
584;HTU21D;27024;54.068;12.116;2023-04-03T00:43:11;0.07;106.17
584;HTU21D;27024;54.068;12.116;2023-04-03T00:45:41;0.01;106.44
584;HTU21D;27024;54.068;12.116;2023-04-03T00:48:12;0.02;106.11
584;HTU21D;27024;54.068;12.116;2023-04-03T00:50:41;0.02;106.44
584;HTU21D;27024;54.068;12.116;2023-04-03T00:53:13;0.01;106.61
584;HTU21D;27024;54.068;12.116;2023-04-03T00:55:41;0.03;106.49
584;HTU21D;27024;54.068;12.116;2023-04-03T00:58:08;-0.00;107.01
584;HTU21D;27024;54.068;12.116;2023-04-03T01:00:38;0.04;106.68
584;HTU21D;27024;54.068;12.116;2023-04-03T01:03:07;0.07;106.35
584;HTU21D;27024;54.068;12.116;2023-04-03T01:05:34;0.10;106.37
584;HTU21D;27024;54.068;12.116;2023-04-03T01:08:01;0.02;106.43
584;HTU21D;27024;54.068;12.116;2023-04-03T01:10:28;0.06;106.17
584;HTU21D;27024;54.068;12.116;2023-04-03T01:12:55;0.09;106.40
584;HTU21D;27024;54.068;12.116;2023-04-03T01:15:25;0.14;105.52
584;HTU21D;27024;54.068;12.116;2023-04-03T01:17:54;0.09;106.21
584;HTU21D;27024;54.068;12.116;2023-04-03T01:28:12;0.22;105.27
584;HTU21D;27024;54.068;12.116;2023-04-03T01:30:51;0.22;105.44
584;HTU21D;27024;54.068;12.116;2023-04-03T01:33:19;0.18;106.06
584;HTU21D;27024;54.068;12.116;2023-04-03T01:35:46;0.24;105.51
584;HTU21D;27024;54.068;12.116;2023-04-03T01:38:13;0.30;104.68
584;HTU21D;27024;54.068;12.116;2023-04-03T01:40:40;0.27;104.13
584;HTU21D;27024;54.068;12.116;2023-04-03T01:43:07;0.42;103.55
584;HTU21D;27024;54.068;12.116;2023-04-03T01:45:34;0.46;103.15
584;HTU21D;27024;54.068;12.116;2023-04-03T01:48:01;0.43;103.23
584;HTU21D;27024;54.068;12.116;2023-04-03T01:50:29;0.43;103.17
584;HTU21D;27024;54.068;12.116;2023-04-03T01:52:55;0.45;103.08
584;HTU21D;27024;54.068;12.116;2023-04-03T01:55:22;0.42;103.05
584;HTU21D;27024;54.068;12.116;2023-04-03T01:57:49;0.39;103.27
584;HTU21D;27024;54.068;12.116;2023-04-03T02:00:16;0.36;103.63
584;HTU21D;27024;54.068;12.116;2023-04-03T02:02:43;0.35;103.40
584;HTU21D;27024;54.068;12.116;2023-04-03T02:05:10;0.37;103.24
584;HTU21D;27024;54.068;12.116;2023-04-03T02:07:37;0.35;103.02
584;HTU21D;27024;54.068;12.116;2023-04-03T02:10:04;0.35;103.36
584;HTU21D;27024;54.068;12.116;2023-04-03T02:12:31;0.37;103.12
584;HTU21D;27024;54.068;12.116;2023-04-03T02:14:57;0.36;103.28
584;HTU21D;27024;54.068;12.116;2023-04-03T02:17:24;0.32;103.90
584;HTU21D;27024;54.068;12.116;2023-04-03T02:19:51;0.30;103.56
584;HTU21D;27024;54.068;12.116;2023-04-03T02:22:18;0.31;103.61
584;HTU21D;27024;54.068;12.116;2023-04-03T02:24:45;0.28;103.74
584;HTU21D;27024;54.068;12.116;2023-04-03T02:27:12;0.21;104.43
584;HTU21D;27024;54.068;12.116;2023-04-03T02:29:39;0.04;105.34
584;HTU21D;27024;54.068;12.116;2023-04-03T02:32:06;0.01;105.36
584;HTU21D;27024;54.068;12.116;2023-04-03T02:34:33;0.08;104.61
584;HTU21D;27024;54.068;12.116;2023-04-03T02:36:59;0.01;104.75
584;HTU21D;27024;54.068;12.116;2023-04-03T02:39:26;0.07;104.31
584;HTU21D;27024;54.068;12.116;2023-04-03T02:41:53;0.14;104.08
584;HTU21D;27024;54.068;12.116;2023-04-03T02:44:20;0.20;103.53
584;HTU21D;27024;54.068;12.116;2023-04-03T02:46:47;0.22;104.00
584;HTU21D;27024;54.068;12.116;2023-04-03T02:49:13;0.27;103.70
584;HTU21D;27024;54.068;12.116;2023-04-03T02:51:40;0.29;103.96
584;HTU21D;27024;54.068;12.116;2023-04-03T02:54:08;0.27;103.90
584;HTU21D;27024;54.068;12.116;2023-04-03T02:56:34;0.38;103.81
584;HTU21D;27024;54.068;12.116;2023-04-03T02:59:01;0.35;103.79
584;HTU21D;27024;54.068;12.116;2023-04-03T03:01:28;0.35;103.73
584;HTU21D;27024;54.068;12.116;2023-04-03T03:03:59;0.29;103.84
584;HTU21D;27024;54.068;12.116;2023-04-03T03:06:26;0.30;103.92
584;HTU21D;27024;54.068;12.116;2023-04-03T03:08:53;0.31;103.99
584;HTU21D;27024;54.068;12.116;2023-04-03T03:11:20;0.16;104.69
584;HTU21D;27024;54.068;12.116;2023-04-03T03:13:47;0.15;105.15
584;HTU21D;27024;54.068;12.116;2023-04-03T03:16:14;0.19;104.81
584;HTU21D;27024;54.068;12.116;2023-04-03T03:18:41;0.22;104.66
584;HTU21D;27024;54.068;12.116;2023-04-03T03:21:09;0.23;104.47
584;HTU21D;27024;54.068;12.116;2023-04-03T03:23:36;0.19;104.53
584;HTU21D;27024;54.068;12.116;2023-04-03T03:26:05;0.19;104.75
584;HTU21D;27024;54.068;12.116;2023-04-03T03:28:34;0.20;104.53
584;HTU21D;27024;54.068;12.116;2023-04-03T03:31:01;0.21;104.63
584;HTU21D;27024;54.068;12.116;2023-04-03T03:33:29;0.15;104.95
584;HTU21D;27024;54.068;12.116;2023-04-03T03:35:56;0.14;104.99
584;HTU21D;27024;54.068;12.116;2023-04-03T03:38:23;0.20;104.54
584;HTU21D;27024;54.068;12.116;2023-04-03T03:40:51;0.16;104.72
584;HTU21D;27024;54.068;12.116;2023-04-03T03:43:18;0.17;104.88
584;HTU21D;27024;54.068;12.116;2023-04-03T03:45:45;0.06;105.31
584;HTU21D;27024;54.068;12.116;2023-04-03T03:48:13;0.06;106.73
584;HTU21D;27024;54.068;12.116;2023-04-03T03:50:39;-0.01;106.44
584;HTU21D;27024;54.068;12.116;2023-04-03T03:53:06;-0.05;106.59
584;HTU21D;27024;54.068;12.116;2023-04-03T03:55:33;0.05;105.90
584;HTU21D;27024;54.068;12.116;2023-04-03T03:58:00;0.02;105.62
584;HTU21D;27024;54.068;12.116;2023-04-03T04:00:27;-0.14;106.69
584;HTU21D;27024;54.068;12.116;2023-04-03T04:02:54;-0.09;106.57
584;HTU21D;27024;54.068;12.116;2023-04-03T04:05:24;-0.08;106.59
584;HTU21D;27024;54.068;12.116;2023-04-03T04:07:51;-0.22;107.13
584;HTU21D;27024;54.068;12.116;2023-04-03T04:10:18;-0.15;106.69
584;HTU21D;27024;54.068;12.116;2023-04-03T04:12:45;-0.12;106.11
584;HTU21D;27024;54.068;12.116;2023-04-03T04:15:11;-0.16;106.20
584;HTU21D;27024;54.068;12.116;2023-04-03T04:17:38;-0.14;106.08
584;HTU21D;27024;54.068;12.116;2023-04-03T04:20:06;-0.12;106.05
584;HTU21D;27024;54.068;12.116;2023-04-03T04:22:33;-0.09;105.82
584;HTU21D;27024;54.068;12.116;2023-04-03T04:24:59;-0.16;106.34
584;HTU21D;27024;54.068;12.116;2023-04-03T04:27:26;-0.16;106.78
584;HTU21D;27024;54.068;12.116;2023-04-03T04:29:53;-0.21;106.81
584;HTU21D;27024;54.068;12.116;2023-04-03T04:32:20;-0.21;106.72
584;HTU21D;27024;54.068;12.116;2023-04-03T04:34:47;-0.10;106.07
584;HTU21D;27024;54.068;12.116;2023-04-03T04:37:14;-0.13;105.61
584;HTU21D;27024;54.068;12.116;2023-04-03T04:39:40;-0.13;105.45
584;HTU21D;27024;54.068;12.116;2023-04-03T04:42:07;-0.07;105.08
584;HTU21D;27024;54.068;12.116;2023-04-03T04:44:42;-0.03;105.27
584;HTU21D;27024;54.068;12.116;2023-04-03T04:47:09;-0.02;105.31
584;HTU21D;27024;54.068;12.116;2023-04-03T04:49:36;0.08;104.84
584;HTU21D;27024;54.068;12.116;2023-04-03T04:52:03;0.07;104.66
584;HTU21D;27024;54.068;12.116;2023-04-03T04:54:30;0.12;104.41
584;HTU21D;27024;54.068;12.116;2023-04-03T04:56:56;0.12;104.60
584;HTU21D;27024;54.068;12.116;2023-04-03T04:59:23;0.21;104.28
584;HTU21D;27024;54.068;12.116;2023-04-03T05:01:50;0.19;104.53
584;HTU21D;27024;54.068;12.116;2023-04-03T05:04:18;0.23;104.76
584;HTU21D;27024;54.068;12.116;2023-04-03T05:06:44;0.63;109.55
584;HTU21D;27024;54.068;12.116;2023-04-03T05:09:11;0.64;104.62
584;HTU21D;27024;54.068;12.116;2023-04-03T05:11:38;0.48;104.57
584;HTU21D;27024;54.068;12.116;2023-04-03T05:14:05;0.49;104.47
584;HTU21D;27024;54.068;12.116;2023-04-03T05:16:33;0.55;103.86
584;HTU21D;27024;54.068;12.116;2023-04-03T05:19:00;0.82;102.45
584;HTU21D;27024;54.068;12.116;2023-04-03T05:21:27;0.87;101.28
584;HTU21D;27024;54.068;12.116;2023-04-03T05:24:01;1.10;99.78
584;HTU21D;27024;54.068;12.116;2023-04-03T05:26:30;1.10;99.74
584;HTU21D;27024;54.068;12.116;2023-04-03T05:28:57;1.31;98.77
584;HTU21D;27024;54.068;12.116;2023-04-03T05:31:24;1.33;98.90
584;HTU21D;27024;54.068;12.116;2023-04-03T05:33:51;1.43;97.94
584;HTU21D;27024;54.068;12.116;2023-04-03T05:36:18;1.58;96.50
584;HTU21D;27024;54.068;12.116;2023-04-03T05:38:46;1.77;95.36
584;HTU21D;27024;54.068;12.116;2023-04-03T05:41:13;2.05;94.53
584;HTU21D;27024;54.068;12.116;2023-04-03T05:43:40;2.12;93.75
584;HTU21D;27024;54.068;12.116;2023-04-03T05:46:12;2.38;92.75
584;HTU21D;27024;54.068;12.116;2023-04-03T05:48:39;2.44;91.56
584;HTU21D;27024;54.068;12.116;2023-04-03T05:51:06;2.57;90.45
584;HTU21D;27024;54.068;12.116;2023-04-03T05:53:35;2.61;87.29
584;HTU21D;27024;54.068;12.116;2023-04-03T05:56:05;2.65;89.65
584;HTU21D;27024;54.068;12.116;2023-04-03T05:58:32;2.90;88.90
584;HTU21D;27024;54.068;12.116;2023-04-03T06:00:59;3.10;86.84
584;HTU21D;27024;54.068;12.116;2023-04-03T06:03:26;3.91;80.40
584;HTU21D;27024;54.068;12.116;2023-04-03T06:05:53;4.07;80.19
584;HTU21D;27024;54.068;12.116;2023-04-03T06:08:20;4.69;76.33
584;HTU21D;27024;54.068;12.116;2023-04-03T06:10:47;4.75;74.95
584;HTU21D;27024;54.068;12.116;2023-04-03T06:13:14;4.82;74.92
584;HTU21D;27024;54.068;12.116;2023-04-03T06:15:41;4.72;76.78
584;HTU21D;27024;54.068;12.116;2023-04-03T06:18:08;4.97;74.75
584;HTU21D;27024;54.068;12.116;2023-04-03T06:20:35;4.91;75.15
584;HTU21D;27024;54.068;12.116;2023-04-03T06:23:02;4.87;74.09
584;HTU21D;27024;54.068;12.116;2023-04-03T06:25:29;4.78;74.60
584;HTU21D;27024;54.068;12.116;2023-04-03T06:27:56;4.67;74.78
584;HTU21D;27024;54.068;12.116;2023-04-03T06:30:23;5.24;73.97
584;HTU21D;27024;54.068;12.116;2023-04-03T06:32:50;5.35;73.56
584;HTU21D;27024;54.068;12.116;2023-04-03T06:35:17;5.38;72.24
584;HTU21D;27024;54.068;12.116;2023-04-03T06:37:43;5.86;70.06
584;HTU21D;27024;54.068;12.116;2023-04-03T06:40:19;5.80;70.02
584;HTU21D;27024;54.068;12.116;2023-04-03T06:42:47;5.76;69.33
584;HTU21D;27024;54.068;12.116;2023-04-03T06:45:14;5.93;68.03
584;HTU21D;27024;54.068;12.116;2023-04-03T06:47:41;5.10;70.71
584;HTU21D;27024;54.068;12.116;2023-04-03T06:50:10;5.37;70.57
584;HTU21D;27024;54.068;12.116;2023-04-03T06:52:38;5.64;70.48
584;HTU21D;27024;54.068;12.116;2023-04-03T06:55:07;6.16;67.97
584;HTU21D;27024;54.068;12.116;2023-04-03T06:57:33;6.06;66.06
584;HTU21D;27024;54.068;12.116;2023-04-03T07:00:01;6.37;66.98
584;HTU21D;27024;54.068;12.116;2023-04-03T07:02:28;6.20;65.31
584;HTU21D;27024;54.068;12.116;2023-04-03T07:04:54;5.81;66.91
584;HTU21D;27024;54.068;12.116;2023-04-03T07:07:22;6.10;64.95
584;HTU21D;27024;54.068;12.116;2023-04-03T07:09:48;6.43;63.47
584;HTU21D;27024;54.068;12.116;2023-04-03T07:12:15;6.70;61.43
584;HTU21D;27024;54.068;12.116;2023-04-03T07:14:43;6.73;60.56
584;HTU21D;27024;54.068;12.116;2023-04-03T07:17:10;6.69;62.99
584;HTU21D;27024;54.068;12.116;2023-04-03T07:19:37;7.19;61.88
584;HTU21D;27024;54.068;12.116;2023-04-03T07:22:03;7.26;59.64
584;HTU21D;27024;54.068;12.116;2023-04-03T07:24:30;6.91;59.41
584;HTU21D;27024;54.068;12.116;2023-04-03T07:26:57;6.95;59.60
584;HTU21D;27024;54.068;12.116;2023-04-03T07:29:24;7.14;60.93
584;HTU21D;27024;54.068;12.116;2023-04-03T07:31:50;7.07;61.16
584;HTU21D;27024;54.068;12.116;2023-04-03T07:34:18;7.15;58.86
584;HTU21D;27024;54.068;12.116;2023-04-03T07:36:44;6.81;58.54
584;HTU21D;27024;54.068;12.116;2023-04-03T07:39:11;6.63;60.42
584;HTU21D;27024;54.068;12.116;2023-04-03T07:41:38;6.69;59.16
584;HTU21D;27024;54.068;12.116;2023-04-03T07:44:05;6.96;59.09
584;HTU21D;27024;54.068;12.116;2023-04-03T07:46:32;6.55;59.39
584;HTU21D;27024;54.068;12.116;2023-04-03T07:48:59;6.79;59.36
584;HTU21D;27024;54.068;12.116;2023-04-03T07:51:26;6.75;58.54
584;HTU21D;27024;54.068;12.116;2023-04-03T07:53:53;6.72;60.53
584;HTU21D;27024;54.068;12.116;2023-04-03T07:56:20;6.97;60.20
584;HTU21D;27024;54.068;12.116;2023-04-03T07:58:47;6.85;58.70
584;HTU21D;27024;54.068;12.116;2023-04-03T08:01:14;6.93;58.48
584;HTU21D;27024;54.068;12.116;2023-04-03T08:03:41;6.65;58.00
584;HTU21D;27024;54.068;12.116;2023-04-03T08:06:08;6.36;60.81
584;HTU21D;27024;54.068;12.116;2023-04-03T08:08:42;7.05;58.60
584;HTU21D;27024;54.068;12.116;2023-04-03T08:11:09;7.23;57.75
584;HTU21D;27024;54.068;12.116;2023-04-03T08:13:37;7.45;60.07
584;HTU21D;27024;54.068;12.116;2023-04-03T08:16:09;8.58;73.83
584;HTU21D;27024;54.068;12.116;2023-04-03T08:18:37;8.28;59.45
584;HTU21D;27024;54.068;12.116;2023-04-03T08:21:06;8.47;52.51
584;HTU21D;27024;54.068;12.116;2023-04-03T08:23:33;8.22;52.21
584;HTU21D;27024;54.068;12.116;2023-04-03T08:26:15;7.61;52.26
584;HTU21D;27024;54.068;12.116;2023-04-03T08:28:43;6.38;56.05
584;HTU21D;27024;54.068;12.116;2023-04-03T08:31:13;6.74;57.29
584;HTU21D;27024;54.068;12.116;2023-04-03T08:33:40;6.70;56.67
584;HTU21D;27024;54.068;12.116;2023-04-03T08:36:19;6.39;59.58
584;HTU21D;27024;54.068;12.116;2023-04-03T08:38:47;6.78;59.56
584;HTU21D;27024;54.068;12.116;2023-04-03T08:51:55;8.04;53.47
584;HTU21D;27024;54.068;12.116;2023-04-03T08:54:34;8.86;51.55
584;HTU21D;27024;54.068;12.116;2023-04-03T08:57:04;9.26;49.60
584;HTU21D;27024;54.068;12.116;2023-04-03T08:59:34;9.20;45.65
584;HTU21D;27024;54.068;12.116;2023-04-03T09:02:27;8.97;45.17
584;HTU21D;27024;54.068;12.116;2023-04-03T09:04:55;9.11;45.87
584;HTU21D;27024;54.068;12.116;2023-04-03T09:07:42;9.94;44.39
584;HTU21D;27024;54.068;12.116;2023-04-03T09:10:13;10.43;42.54
584;HTU21D;27024;54.068;12.116;2023-04-03T09:12:55;10.59;40.84
584;HTU21D;27024;54.068;12.116;2023-04-03T09:15:25;10.85;41.00
584;HTU21D;27024;54.068;12.116;2023-04-03T09:18:22;11.07;39.39
584;HTU21D;27024;54.068;12.116;2023-04-03T09:21:06;11.27;38.94
584;HTU21D;27024;54.068;12.116;2023-04-03T09:23:44;9.52;43.48
584;HTU21D;27024;54.068;12.116;2023-04-03T09:26:25;10.68;41.16
584;HTU21D;27024;54.068;12.116;2023-04-03T09:28:54;9.53;40.15
584;HTU21D;27024;54.068;12.116;2023-04-03T09:31:27;11.01;40.74
584;HTU21D;27024;54.068;12.116;2023-04-03T09:34:02;10.54;38.68
584;HTU21D;27024;54.068;12.116;2023-04-03T09:36:47;11.00;37.66
584;HTU21D;27024;54.068;12.116;2023-04-03T09:39:20;12.03;35.54
584;HTU21D;27024;54.068;12.116;2023-04-03T09:42:01;12.01;32.18
584;HTU21D;27024;54.068;12.116;2023-04-03T09:44:37;12.49;34.70
584;HTU21D;27024;54.068;12.116;2023-04-03T09:52:39;12.81;33.49
584;HTU21D;27024;54.068;12.116;2023-04-03T09:55:13;13.35;32.04
584;HTU21D;27024;54.068;12.116;2023-04-03T09:57:40;13.08;32.71
584;HTU21D;27024;54.068;12.116;2023-04-03T10:00:23;12.08;32.32
584;HTU21D;27024;54.068;12.116;2023-04-03T10:02:54;12.91;30.68
584;HTU21D;27024;54.068;12.116;2023-04-03T10:08:33;11.19;32.18
584;HTU21D;27024;54.068;12.116;2023-04-03T10:13:49;11.84;27.36
584;HTU21D;27024;54.068;12.116;2023-04-03T10:16:20;12.94;27.57
584;HTU21D;27024;54.068;12.116;2023-04-03T10:26:57;12.61;24.74
584;HTU21D;27024;54.068;12.116;2023-04-03T10:29:42;12.65;26.27
584;HTU21D;27024;54.068;12.116;2023-04-03T10:38:00;13.00;26.70
584;HTU21D;27024;54.068;12.116;2023-04-03T10:40:52;13.41;26.68
584;HTU21D;27024;54.068;12.116;2023-04-03T10:43:33;13.93;24.82
584;HTU21D;27024;54.068;12.116;2023-04-03T10:46:13;13.55;26.25
584;HTU21D;27024;54.068;12.116;2023-04-03T10:49:08;13.48;26.17
584;HTU21D;27024;54.068;12.116;2023-04-03T10:51:58;14.17;26.78
584;HTU21D;27024;54.068;12.116;2023-04-03T10:54:42;14.18;26.01
584;HTU21D;27024;54.068;12.116;2023-04-03T10:57:11;14.03;25.46
584;HTU21D;27024;54.068;12.116;2023-04-03T10:59:59;14.22;26.49
584;HTU21D;27024;54.068;12.116;2023-04-03T11:05:21;14.52;26.96
584;HTU21D;27024;54.068;12.116;2023-04-03T11:07:52;14.68;25.94
584;HTU21D;27024;54.068;12.116;2023-04-03T11:10:24;14.87;25.40
584;HTU21D;27024;54.068;12.116;2023-04-03T11:12:59;14.84;24.40
584;HTU21D;27024;54.068;12.116;2023-04-03T11:15:30;15.36;25.43
584;HTU21D;27024;54.068;12.116;2023-04-03T11:21:04;14.72;23.13
584;HTU21D;27024;54.068;12.116;2023-04-03T11:23:39;14.86;23.91
584;HTU21D;27024;54.068;12.116;2023-04-03T11:26:19;15.13;24.69
584;HTU21D;27024;54.068;12.116;2023-04-03T11:28:52;15.27;24.36
584;HTU21D;27024;54.068;12.116;2023-04-03T11:31:26;13.92;25.18
584;HTU21D;27024;54.068;12.116;2023-04-03T11:34:34;14.42;23.68
584;HTU21D;27024;54.068;12.116;2023-04-03T11:37:21;14.91;22.56
584;HTU21D;27024;54.068;12.116;2023-04-03T11:39:56;14.63;22.42
584;HTU21D;27024;54.068;12.116;2023-04-03T11:42:39;14.87;24.03
584;HTU21D;27024;54.068;12.116;2023-04-03T11:47:58;14.99;22.82
584;HTU21D;27024;54.068;12.116;2023-04-03T12:08:36;14.14;24.72
584;HTU21D;27024;54.068;12.116;2023-04-03T12:19:42;15.09;20.73
584;HTU21D;27024;54.068;12.116;2023-04-03T12:22:13;15.08;21.65
584;HTU21D;27024;54.068;12.116;2023-04-03T12:24:43;13.96;21.73
584;HTU21D;27024;54.068;12.116;2023-04-03T12:27:26;14.15;22.43
584;HTU21D;27024;54.068;12.116;2023-04-03T12:30:13;13.55;22.79
584;HTU21D;27024;54.068;12.116;2023-04-03T12:33:02;14.21;22.08
584;HTU21D;27024;54.068;12.116;2023-04-03T12:38:58;14.30;25.12
584;HTU21D;27024;54.068;12.116;2023-04-03T12:41:38;14.21;22.28
584;HTU21D;27024;54.068;12.116;2023-04-03T12:46:53;15.07;23.27
584;HTU21D;27024;54.068;12.116;2023-04-03T12:51:50;14.42;23.28
584;HTU21D;27024;54.068;12.116;2023-04-03T12:54:35;14.98;24.33
584;HTU21D;27024;54.068;12.116;2023-04-03T12:57:16;14.04;23.17
584;HTU21D;27024;54.068;12.116;2023-04-03T12:59:44;13.77;25.39
584;HTU21D;27024;54.068;12.116;2023-04-03T13:02:33;14.27;21.62
584;HTU21D;27024;54.068;12.116;2023-04-03T13:05:07;14.12;23.37
584;HTU21D;27024;54.068;12.116;2023-04-03T13:07:37;14.53;21.72
584;HTU21D;27024;54.068;12.116;2023-04-03T13:12:49;14.60;21.11
584;HTU21D;27024;54.068;12.116;2023-04-03T13:15:28;14.29;20.90
584;HTU21D;27024;54.068;12.116;2023-04-03T13:17:55;14.26;22.39
584;HTU21D;27024;54.068;12.116;2023-04-03T13:20:31;14.19;22.88
584;HTU21D;27024;54.068;12.116;2023-04-03T13:23:07;14.11;22.49
584;HTU21D;27024;54.068;12.116;2023-04-03T13:25:40;13.89;21.98
584;HTU21D;27024;54.068;12.116;2023-04-03T13:28:12;13.39;18.31
584;HTU21D;27024;54.068;12.116;2023-04-03T13:30:41;14.14;19.96
584;HTU21D;27024;54.068;12.116;2023-04-03T13:33:26;13.73;20.41
584;HTU21D;27024;54.068;12.116;2023-04-03T13:36:17;14.18;22.04
584;HTU21D;27024;54.068;12.116;2023-04-03T13:38:45;14.63;20.51
584;HTU21D;27024;54.068;12.116;2023-04-03T13:41:35;14.95;19.84
584;HTU21D;27024;54.068;12.116;2023-04-03T13:44:26;14.09;21.25
584;HTU21D;27024;54.068;12.116;2023-04-03T13:49:44;14.28;19.02
584;HTU21D;27024;54.068;12.116;2023-04-03T13:52:30;14.40;21.14
584;HTU21D;27024;54.068;12.116;2023-04-03T13:55:01;15.23;23.51
584;HTU21D;27024;54.068;12.116;2023-04-03T14:02:46;14.79;25.14
584;HTU21D;27024;54.068;12.116;2023-04-03T14:20:02;14.37;21.74
584;HTU21D;27024;54.068;12.116;2023-04-03T14:24:56;14.14;22.11
584;HTU21D;27024;54.068;12.116;2023-04-03T14:28:31;14.64;25.30
584;HTU21D;27024;54.068;12.116;2023-04-03T14:31:14;14.07;25.46
584;HTU21D;27024;54.068;12.116;2023-04-03T14:33:49;14.39;23.77
584;HTU21D;27024;54.068;12.116;2023-04-03T14:36:20;14.54;21.84
584;HTU21D;27024;54.068;12.116;2023-04-03T14:38:48;13.85;23.67
584;HTU21D;27024;54.068;12.116;2023-04-03T14:41:18;14.12;26.46
584;HTU21D;27024;54.068;12.116;2023-04-03T14:43:47;13.89;24.56
584;HTU21D;27024;54.068;12.116;2023-04-03T14:46:17;13.95;24.08
584;HTU21D;27024;54.068;12.116;2023-04-03T14:48:44;12.61;25.11
584;HTU21D;27024;54.068;12.116;2023-04-03T14:51:13;12.75;28.64
584;HTU21D;27024;54.068;12.116;2023-04-03T14:53:41;12.74;28.44
584;HTU21D;27024;54.068;12.116;2023-04-03T14:56:14;12.05;26.90
584;HTU21D;27024;54.068;12.116;2023-04-03T14:58:42;11.82;28.17
584;HTU21D;27024;54.068;12.116;2023-04-03T15:01:11;11.73;27.94
584;HTU21D;27024;54.068;12.116;2023-04-03T15:03:38;11.61;29.02
584;HTU21D;27024;54.068;12.116;2023-04-03T15:06:06;11.29;28.47
584;HTU21D;27024;54.068;12.116;2023-04-03T15:08:32;10.69;29.55
584;HTU21D;27024;54.068;12.116;2023-04-03T15:10:59;10.31;31.04
584;HTU21D;27024;54.068;12.116;2023-04-03T15:13:27;10.40;30.35
584;HTU21D;27024;54.068;12.116;2023-04-03T15:15:54;10.13;32.18
584;HTU21D;27024;54.068;12.116;2023-04-03T15:18:26;9.74;34.24
584;HTU21D;27024;54.068;12.116;2023-04-03T15:20:56;9.41;33.99
584;HTU21D;27024;54.068;12.116;2023-04-03T15:23:23;9.46;35.40
584;HTU21D;27024;54.068;12.116;2023-04-03T15:25:54;9.06;36.43
584;HTU21D;27024;54.068;12.116;2023-04-03T15:28:25;9.19;34.34
584;HTU21D;27024;54.068;12.116;2023-04-03T15:30:53;8.65;34.69
584;HTU21D;27024;54.068;12.116;2023-04-03T15:33:21;9.03;34.22
584;HTU21D;27024;54.068;12.116;2023-04-03T15:35:49;9.52;34.10
584;HTU21D;27024;54.068;12.116;2023-04-03T15:38:16;9.88;34.18
584;HTU21D;27024;54.068;12.116;2023-04-03T15:40:43;9.22;33.96
584;HTU21D;27024;54.068;12.116;2023-04-03T15:43:10;10.03;33.96
584;HTU21D;27024;54.068;12.116;2023-04-03T15:45:37;9.64;34.22
584;HTU21D;27024;54.068;12.116;2023-04-03T15:48:05;9.98;34.29
584;HTU21D;27024;54.068;12.116;2023-04-03T15:50:33;9.55;34.03
584;HTU21D;27024;54.068;12.116;2023-04-03T15:53:01;10.34;32.85
584;HTU21D;27024;54.068;12.116;2023-04-03T15:55:31;10.30;32.06
584;HTU21D;27024;54.068;12.116;2023-04-03T15:57:58;10.31;33.02
584;HTU21D;27024;54.068;12.116;2023-04-03T16:00:26;10.63;32.96
584;HTU21D;27024;54.068;12.116;2023-04-03T16:02:55;10.65;33.12
584;HTU21D;27024;54.068;12.116;2023-04-03T16:05:24;10.97;32.01
584;HTU21D;27024;54.068;12.116;2023-04-03T16:07:51;10.52;32.74
584;HTU21D;27024;54.068;12.116;2023-04-03T16:10:18;10.99;31.90
584;HTU21D;27024;54.068;12.116;2023-04-03T16:12:45;10.51;34.10
584;HTU21D;27024;54.068;12.116;2023-04-03T16:15:12;10.46;33.11
584;HTU21D;27024;54.068;12.116;2023-04-03T16:17:40;10.21;33.08
584;HTU21D;27024;54.068;12.116;2023-04-03T16:20:11;10.34;33.62
584;HTU21D;27024;54.068;12.116;2023-04-03T16:22:40;10.41;34.57
584;HTU21D;27024;54.068;12.116;2023-04-03T16:25:08;10.40;37.15
584;HTU21D;27024;54.068;12.116;2023-04-03T16:27:35;9.91;34.25
584;HTU21D;27024;54.068;12.116;2023-04-03T16:30:02;9.88;35.59
584;HTU21D;27024;54.068;12.116;2023-04-03T16:32:30;9.77;34.80
584;HTU21D;27024;54.068;12.116;2023-04-03T16:34:58;9.88;35.44
584;HTU21D;27024;54.068;12.116;2023-04-03T16:37:30;9.82;36.50
584;HTU21D;27024;54.068;12.116;2023-04-03T16:39:58;9.52;36.05
584;HTU21D;27024;54.068;12.116;2023-04-03T16:42:25;9.85;37.24
584;HTU21D;27024;54.068;12.116;2023-04-03T16:44:52;9.44;36.46
584;HTU21D;27024;54.068;12.116;2023-04-03T16:47:19;8.56;36.39
584;HTU21D;27024;54.068;12.116;2023-04-03T16:49:46;8.79;37.45
584;HTU21D;27024;54.068;12.116;2023-04-03T16:52:14;8.82;37.48
584;HTU21D;27024;54.068;12.116;2023-04-03T16:54:41;8.79;38.02
584;HTU21D;27024;54.068;12.116;2023-04-03T16:57:08;8.22;39.15
584;HTU21D;27024;54.068;12.116;2023-04-03T16:59:34;7.55;38.94
584;HTU21D;27024;54.068;12.116;2023-04-03T17:02:01;7.60;39.99
584;HTU21D;27024;54.068;12.116;2023-04-03T17:04:29;7.28;41.58
584;HTU21D;27024;54.068;12.116;2023-04-03T17:06:56;7.22;42.78
584;HTU21D;27024;54.068;12.116;2023-04-03T17:09:23;7.01;43.61
584;HTU21D;27024;54.068;12.116;2023-04-03T17:11:50;6.33;43.57
584;HTU21D;27024;54.068;12.116;2023-04-03T17:14:17;6.45;42.87
584;HTU21D;27024;54.068;12.116;2023-04-03T17:16:44;6.24;43.69
584;HTU21D;27024;54.068;12.116;2023-04-03T17:19:11;6.09;45.05
584;HTU21D;27024;54.068;12.116;2023-04-03T17:21:38;5.91;44.66
584;HTU21D;27024;54.068;12.116;2023-04-03T17:24:06;5.68;44.54
584;HTU21D;27024;54.068;12.116;2023-04-03T17:26:35;5.48;45.32
584;HTU21D;27024;54.068;12.116;2023-04-03T17:29:03;5.60;45.37
584;HTU21D;27024;54.068;12.116;2023-04-03T17:31:30;5.45;45.87
584;HTU21D;27024;54.068;12.116;2023-04-03T17:33:57;5.22;46.09
584;HTU21D;27024;54.068;12.116;2023-04-03T17:36:32;5.07;47.44
584;HTU21D;27024;54.068;12.116;2023-04-03T17:39:00;4.90;47.36
584;HTU21D;27024;54.068;12.116;2023-04-03T17:41:27;4.94;47.33
584;HTU21D;27024;54.068;12.116;2023-04-03T17:43:53;4.62;48.45
584;HTU21D;27024;54.068;12.116;2023-04-03T17:46:23;5.09;54.08
584;HTU21D;27024;54.068;12.116;2023-04-03T17:48:52;4.83;51.70